Time;durP1;ratioP1;P1;durP2;ratioP2;P2;SDS_P1;SDS_P2;PMS_P1;PMS_P2;Temp;Humidity;BMP_temperature;BMP_pressure;BME280_temperature;BME280_humidity;BME280_pressure;Samples;Min_cycle;Max_cycle;Signal;HPM_P1;HPM_P2
2022/10/21 00:00:16;;;;;;;16.07;3.90;;;;;;;;;;5099762;28;20241;-64
2022/10/21 00:02:44;;;;;;;8.83;3.63;;;;;;;;;;5100171;28;20209;-62
2022/10/21 00:05:12;;;;;;;10.37;3.50;;;;;;;;;;5099844;28;20655;-62
2022/10/21 00:07:41;;;;;;;10.87;3.63;;;;;;;;;;5099876;28;20236;-63
2022/10/21 00:10:09;;;;;;;6.60;3.07;;;;;;;;;;5099304;28;20313;-64
2022/10/21 00:12:37;;;;;;;9.77;3.60;;;;;;;;;;5099588;28;20244;-63
2022/10/21 00:15:06;;;;;;;11.67;3.63;;;;;;;;;;5099624;28;20233;-63
2022/10/21 00:17:34;;;;;;;13.67;4.77;;;;;;;;;;5099777;28;20233;-64
2022/10/21 00:20:02;;;;;;;13.17;3.67;;;;;;;;;;5099412;28;20296;-64
2022/10/21 00:22:30;;;;;;;9.23;3.47;;;;;;;;;;5099661;28;20243;-62
2022/10/21 00:24:59;;;;;;;9.00;3.40;;;;;;;;;;5098992;28;20299;-64
2022/10/21 00:27:27;;;;;;;7.90;3.23;;;;;;;;;;5098849;28;20233;-64
2022/10/21 00:29:55;;;;;;;6.10;3.93;;;;;;;;;;5099326;28;20272;-63
2022/10/21 00:32:22;;;;;;;9.87;3.60;;;;;;;;;;5099704;28;20210;-63
2022/10/21 00:34:50;;;;;;;9.47;3.77;;;;;;;;;;5099635;28;20252;-63
2022/10/21 00:37:18;;;;;;;8.67;3.67;;;;;;;;;;5099435;28;20259;-62
2022/10/21 00:39:46;;;;;;;8.33;3.97;;;;;;;;;;5098795;28;20201;-63
2022/10/21 00:42:17;;;;;;;10.47;3.70;;;;;;;;;;5099117;28;20642;-63
2022/10/21 00:45:01;;;;;;;10.93;3.87;;;;;;;;;;5099255;28;20316;-63
2022/10/21 00:47:29;;;;;;;9.23;4.47;;;;;;;;;;5099165;28;20288;-61
2022/10/21 00:49:59;;;;;;;7.90;3.13;;;;;;;;;;5098992;28;20308;-62
2022/10/21 00:52:27;;;;;;;14.27;4.00;;;;;;;;;;5099235;28;20217;-62
2022/10/21 00:54:56;;;;;;;7.63;3.70;;;;;;;;;;5098440;28;20269;-62
2022/10/21 00:57:26;;;;;;;13.13;4.40;;;;;;;;;;5098727;28;20297;-61
2022/10/21 00:59:56;;;;;;;9.07;3.37;;;;;;;;;;5096473;28;20228;-62
2022/10/21 01:02:24;;;;;;;7.10;3.83;;;;;;;;;;5099195;28;20193;-62
2022/10/21 01:04:52;;;;;;;10.03;4.40;;;;;;;;;;5096200;28;20256;-62
2022/10/21 01:07:20;;;;;;;11.67;4.00;;;;;;;;;;5099002;28;20237;-63
2022/10/21 01:09:48;;;;;;;7.10;4.03;;;;;;;;;;5095672;28;20239;-62
2022/10/21 01:12:23;;;;;;;11.33;4.63;;;;;;;;;;5097979;28;20324;-63
2022/10/21 01:14:56;;;;;;;11.53;4.83;;;;;;;;;;5096346;28;20264;-62
2022/10/21 01:17:30;;;;;;;12.20;4.57;;;;;;;;;;5095401;28;20198;-61
2022/10/21 01:20:36;;;;;;;7.93;3.57;;;;;;;;;;5093964;28;20281;-61
2022/10/21 01:23:20;;;;;;;7.00;4.07;;;;;;;;;;5092103;28;20232;-62
2022/10/21 01:26:00;;;;;;;11.07;4.33;;;;;;;;;;5092743;28;20198;-63
2022/10/21 01:28:33;;;;;;;7.70;3.57;;;;;;;;;;5094322;28;20194;-62
2022/10/21 01:31:07;;;;;;;10.67;4.10;;;;;;;;;;5097532;28;20217;-63
2022/10/21 01:33:42;;;;;;;9.93;4.00;;;;;;;;;;5093726;28;20245;-62
2022/10/21 01:36:14;;;;;;;11.63;3.93;;;;;;;;;;5095952;28;20306;-63
2022/10/21 01:38:43;;;;;;;12.30;4.30;;;;;;;;;;5098207;28;20229;-64
2022/10/21 01:41:13;;;;;;;6.33;4.07;;;;;;;;;;5097873;28;20284;-64
2022/10/21 01:43:45;;;;;;;11.80;5.47;;;;;;;;;;5097966;28;20222;-62
2022/10/21 01:46:16;;;;;;;8.73;4.10;;;;;;;;;;5098217;28;20289;-62
2022/10/21 01:48:47;;;;;;;8.77;4.07;;;;;;;;;;5098228;28;20629;-62
2022/10/21 01:51:16;;;;;;;13.17;4.30;;;;;;;;;;5098093;28;20701;-62
2022/10/21 01:53:48;;;;;;;8.13;3.73;;;;;;;;;;5097332;28;20263;-63
2022/10/21 01:56:17;;;;;;;11.13;4.27;;;;;;;;;;5097991;28;20237;-63
2022/10/21 01:58:45;;;;;;;15.13;3.97;;;;;;;;;;5097726;28;20212;-63
2022/10/21 02:01:15;;;;;;;12.60;5.30;;;;;;;;;;5098051;28;20798;-63
2022/10/21 02:03:45;;;;;;;9.90;4.23;;;;;;;;;;5098264;28;20237;-61
2022/10/21 02:06:13;;;;;;;11.07;3.87;;;;;;;;;;5098031;28;20251;-62
2022/10/21 02:08:40;;;;;;;11.43;3.87;;;;;;;;;;5097958;28;20216;-62
2022/10/21 02:11:09;;;;;;;10.20;4.10;;;;;;;;;;5097318;28;20231;-61
2022/10/21 02:13:40;;;;;;;10.67;3.73;;;;;;;;;;5097684;28;20230;-63
2022/10/21 02:16:09;;;;;;;6.00;4.13;;;;;;;;;;5101905;28;20657;-63
2022/10/21 02:18:39;;;;;;;8.33;4.00;;;;;;;;;;5104580;28;20205;-63
2022/10/21 02:21:08;;;;;;;6.67;3.93;;;;;;;;;;5104745;28;20229;-63
2022/10/21 02:23:41;;;;;;;9.90;3.83;;;;;;;;;;5104370;28;20290;-63
2022/10/21 02:26:09;;;;;;;9.27;4.27;;;;;;;;;;5104446;28;20258;-63
2022/10/21 02:28:36;;;;;;;15.03;4.60;;;;;;;;;;5090713;28;20634;-63
2022/10/21 02:31:14;;;;;;;10.87;4.13;;;;;;;;;;5104008;28;20275;-64
2022/10/21 02:33:47;;;;;;;9.43;5.63;;;;;;;;;;5104249;28;20259;-64
2022/10/21 02:36:16;;;;;;;11.53;4.07;;;;;;;;;;5104531;28;20297;-62
2022/10/21 02:38:47;;;;;;;12.27;4.33;;;;;;;;;;5103803;28;20240;-63
2022/10/21 02:41:17;;;;;;;9.07;4.20;;;;;;;;;;5104136;28;20205;-62
2022/10/21 02:43:47;;;;;;;13.37;4.40;;;;;;;;;;5104234;28;20231;-62
2022/10/21 02:46:15;;;;;;;13.20;4.53;;;;;;;;;;5104031;28;20258;-63
2022/10/21 02:48:43;;;;;;;14.37;4.07;;;;;;;;;;5104328;28;20273;-62
2022/10/21 02:51:12;;;;;;;8.53;4.30;;;;;;;;;;5104167;28;20632;-63
2022/10/21 02:53:40;;;;;;;10.40;3.97;;;;;;;;;;5103887;28;20279;-63
2022/10/21 02:56:08;;;;;;;10.13;3.63;;;;;;;;;;5104240;28;20679;-62
2022/10/21 02:58:36;;;;;;;12.97;4.50;;;;;;;;;;5103932;28;20244;-63
2022/10/21 03:01:04;;;;;;;7.20;3.77;;;;;;;;;;5104069;28;20256;-63
2022/10/21 03:03:35;;;;;;;7.83;3.63;;;;;;;;;;5102893;28;20312;-63
2022/10/21 03:06:02;;;;;;;10.13;4.00;;;;;;;;;;5104323;28;20297;-63
2022/10/21 03:08:32;;;;;;;9.50;4.37;;;;;;;;;;5104133;28;20205;-63
2022/10/21 03:10:59;;;;;;;9.03;3.60;;;;;;;;;;5100627;28;20233;-63
2022/10/21 03:13:27;;;;;;;10.50;3.83;;;;;;;;;;5098737;28;20684;-63
2022/10/21 03:15:55;;;;;;;10.23;3.80;;;;;;;;;;5100315;28;20198;-63
2022/10/21 03:18:23;;;;;;;10.67;3.80;;;;;;;;;;5102639;28;20713;-63
2022/10/21 03:20:51;;;;;;;11.03;3.90;;;;;;;;;;5101239;28;20231;-63
2022/10/21 03:23:19;;;;;;;11.20;4.57;;;;;;;;;;5102894;28;20225;-63
2022/10/21 03:25:49;;;;;;;6.80;3.40;;;;;;;;;;5097148;28;20201;-63
2022/10/21 03:28:17;;;;;;;9.63;4.00;;;;;;;;;;5096298;28;20201;-63
2022/10/21 03:30:45;;;;;;;12.37;4.13;;;;;;;;;;5099397;28;20664;-63
2022/10/21 03:33:12;;;;;;;11.77;3.90;;;;;;;;;;5093928;28;20206;-62
2022/10/21 03:35:40;;;;;;;17.57;3.90;;;;;;;;;;5099677;28;20205;-62
2022/10/21 03:38:08;;;;;;;7.40;3.70;;;;;;;;;;5096473;28;20229;-62
2022/10/21 03:40:36;;;;;;;11.93;3.73;;;;;;;;;;5096402;28;20201;-63
2022/10/21 03:43:05;;;;;;;10.07;3.53;;;;;;;;;;5096706;28;20229;-62
2022/10/21 03:45:34;;;;;;;8.93;3.60;;;;;;;;;;5099441;28;20198;-62
2022/10/21 03:48:02;;;;;;;11.90;3.80;;;;;;;;;;5096093;28;20225;-62
2022/10/21 03:50:30;;;;;;;10.93;4.40;;;;;;;;;;5099239;28;20232;-63
2022/10/21 03:53:00;;;;;;;12.63;4.67;;;;;;;;;;5095756;28;20241;-63
2022/10/21 03:55:40;;;;;;;11.77;3.90;;;;;;;;;;5098613;28;20205;-62
2022/10/21 03:58:09;;;;;;;14.03;3.87;;;;;;;;;;5099851;28;20232;-62
2022/10/21 04:00:37;;;;;;;9.43;3.67;;;;;;;;;;5100054;28;20641;-62
2022/10/21 04:03:06;;;;;;;12.67;3.97;;;;;;;;;;5099901;28;20602;-62
2022/10/21 04:05:34;;;;;;;11.27;4.20;;;;;;;;;;5099822;28;20541;-62
2022/10/21 04:08:01;;;;;;;10.43;3.43;;;;;;;;;;5099920;28;20668;-62
2022/10/21 04:10:29;;;;;;;11.77;3.80;;;;;;;;;;5099637;28;20233;-63
2022/10/21 04:12:57;;;;;;;12.90;4.30;;;;;;;;;;5099929;28;20763;-63
2022/10/21 04:15:26;;;;;;;11.57;4.00;;;;;;;;;;5099634;28;20296;-63
2022/10/21 04:17:53;;;;;;;15.53;3.57;;;;;;;;;;5099906;28;20644;-63
2022/10/21 04:20:21;;;;;;;8.60;3.77;;;;;;;;;;5099797;28;20237;-63
2022/10/21 04:22:49;;;;;;;8.20;3.50;;;;;;;;;;5099658;28;20242;-63
2022/10/21 04:25:16;;;;;;;13.60;3.17;;;;;;;;;;5098966;28;20294;-62
2022/10/21 04:27:44;;;;;;;10.87;4.30;;;;;;;;;;5099618;28;20237;-63
2022/10/21 04:30:12;;;;;;;9.13;3.07;;;;;;;;;;5099549;28;20684;-62
2022/10/21 04:32:41;;;;;;;8.87;3.17;;;;;;;;;;5099507;28;20264;-63
2022/10/21 04:35:09;;;;;;;10.43;3.50;;;;;;;;;;5099475;28;20268;-63
2022/10/21 04:37:38;;;;;;;7.83;3.43;;;;;;;;;;5098904;28;20639;-63
2022/10/21 04:40:07;;;;;;;12.07;3.70;;;;;;;;;;5098945;28;20210;-63
2022/10/21 04:42:35;;;;;;;11.97;3.10;;;;;;;;;;5099267;28;20229;-63
2022/10/21 04:45:05;;;;;;;9.03;3.50;;;;;;;;;;5099429;28;20256;-62
2022/10/21 04:47:32;;;;;;;11.27;4.03;;;;;;;;;;5099012;28;20288;-63
2022/10/21 04:50:01;;;;;;;12.53;3.47;;;;;;;;;;5099327;28;20237;-63
2022/10/21 04:52:29;;;;;;;18.93;3.97;;;;;;;;;;5098968;28;20308;-62
2022/10/21 04:54:57;;;;;;;9.83;3.30;;;;;;;;;;5098450;28;20276;-63
2022/10/21 04:57:24;;;;;;;8.07;2.90;;;;;;;;;;5099185;28;20244;-62
2022/10/21 04:59:52;;;;;;;15.27;3.90;;;;;;;;;;5098709;28;20288;-62
2022/10/21 05:02:20;;;;;;;10.30;3.13;;;;;;;;;;5097996;28;20236;-60
2022/10/21 05:04:52;;;;;;;13.30;3.30;;;;;;;;;;5098375;28;20589;-60
2022/10/21 05:07:21;;;;;;;8.60;2.90;;;;;;;;;;5098595;28;20224;-60
2022/10/21 05:09:48;;;;;;;11.43;3.17;;;;;;;;;;5098383;28;20221;-60
2022/10/21 05:12:16;;;;;;;8.10;3.13;;;;;;;;;;5099547;28;20289;-61
2022/10/21 05:14:44;;;;;;;9.30;2.63;;;;;;;;;;5098259;28;20259;-61
2022/10/21 05:17:11;;;;;;;7.90;3.00;;;;;;;;;;5098373;28;20232;-60
2022/10/21 05:19:39;;;;;;;8.23;2.53;;;;;;;;;;5098470;28;20233;-60
2022/10/21 05:22:07;;;;;;;14.13;3.00;;;;;;;;;;5098100;28;20281;-60
2022/10/21 05:24:39;;;;;;;11.23;2.90;;;;;;;;;;5095080;28;20225;-59
2022/10/21 05:27:06;;;;;;;6.03;2.83;;;;;;;;;;5098372;28;20206;-61
2022/10/21 05:29:34;;;;;;;9.87;3.40;;;;;;;;;;5097694;28;20240;-60
2022/10/21 05:32:02;;;;;;;8.20;3.27;;;;;;;;;;5097973;28;20625;-61
2022/10/21 05:34:29;;;;;;;6.53;3.00;;;;;;;;;;5097652;28;20233;-62
2022/10/21 05:36:57;;;;;;;8.97;3.63;;;;;;;;;;5098263;28;20630;-62
2022/10/21 05:39:25;;;;;;;12.27;3.30;;;;;;;;;;5092880;28;20228;-63
2022/10/21 05:41:54;;;;;;;13.63;3.13;;;;;;;;;;5088585;28;20221;-62
2022/10/21 05:44:22;;;;;;;18.77;4.63;;;;;;;;;;5086927;28;20256;-63
2022/10/21 05:46:49;;;;;;;12.30;4.20;;;;;;;;;;5089854;28;20229;-63
2022/10/21 05:49:19;;;;;;;10.70;3.60;;;;;;;;;;5092418;28;20206;-63
2022/10/21 05:51:46;;;;;;;9.33;3.40;;;;;;;;;;5087230;28;22771;-63
2022/10/21 05:54:14;;;;;;;10.00;3.03;;;;;;;;;;5091969;28;20328;-63
2022/10/21 05:56:42;;;;;;;7.17;3.30;;;;;;;;;;5089117;28;20285;-63
2022/10/21 05:59:11;;;;;;;11.77;3.20;;;;;;;;;;5087220;28;20281;-63
2022/10/21 06:01:39;;;;;;;4.73;2.50;;;;;;;;;;5090221;28;20716;-63
2022/10/21 06:04:07;;;;;;;11.87;2.93;;;;;;;;;;5085869;28;20253;-63
2022/10/21 06:06:36;;;;;;;10.57;3.13;;;;;;;;;;5093276;28;20194;-63
2022/10/21 06:09:04;;;;;;;6.27;2.47;;;;;;;;;;5084940;28;20237;-63
2022/10/21 06:11:32;;;;;;;5.57;2.93;;;;;;;;;;5089253;28;20303;-63
2022/10/21 06:14:00;;;;;;;8.97;3.07;;;;;;;;;;5086191;28;20285;-63
2022/10/21 06:16:29;;;;;;;8.33;2.53;;;;;;;;;;5085973;28;20281;-63
2022/10/21 06:18:57;;;;;;;6.23;2.93;;;;;;;;;;5088440;28;20225;-63
2022/10/21 06:21:24;;;;;;;3.67;2.40;;;;;;;;;;5093526;28;20651;-64
2022/10/21 06:23:52;;;;;;;9.47;2.70;;;;;;;;;;5091538;28;20253;-62
2022/10/21 06:26:20;;;;;;;5.77;2.90;;;;;;;;;;5089658;28;20285;-63
2022/10/21 06:28:48;;;;;;;8.33;3.93;;;;;;;;;;5088272;28;20202;-62
2022/10/21 06:31:17;;;;;;;12.50;3.50;;;;;;;;;;5091100;28;20259;-63
2022/10/21 06:33:46;;;;;;;12.03;3.43;;;;;;;;;;5087805;28;20695;-63
2022/10/21 06:36:13;;;;;;;7.87;3.30;;;;;;;;;;5093007;28;20533;-62
2022/10/21 06:38:42;;;;;;;8.90;2.73;;;;;;;;;;5089449;28;20281;-63
2022/10/21 06:41:10;;;;;;;4.23;2.73;;;;;;;;;;5091424;28;20320;-63
2022/10/21 06:43:40;;;;;;;6.73;2.40;;;;;;;;;;5086380;28;20213;-61
2022/10/21 06:46:08;;;;;;;9.43;2.80;;;;;;;;;;5089143;28;20239;-63
2022/10/21 06:48:36;;;;;;;6.30;2.67;;;;;;;;;;5084585;28;20294;-63
2022/10/21 06:51:08;;;;;;;5.70;2.87;;;;;;;;;;5093143;28;20229;-62
2022/10/21 06:53:36;;;;;;;6.83;2.97;;;;;;;;;;5082001;28;20709;-63
2022/10/21 06:56:07;;;;;;;6.63;3.30;;;;;;;;;;5088477;28;20224;-62
2022/10/21 06:58:35;;;;;;;7.73;2.90;;;;;;;;;;5090208;28;20252;-62
2022/10/21 07:01:06;;;;;;;9.13;3.03;;;;;;;;;;5082829;28;20237;-62
2022/10/21 07:03:54;;;;;;;8.13;3.13;;;;;;;;;;5096495;28;20577;-61
2022/10/21 07:06:23;;;;;;;5.57;2.70;;;;;;;;;;5092176;28;20253;-61
2022/10/21 07:08:51;;;;;;;11.77;3.53;;;;;;;;;;5090695;28;20202;-63
2022/10/21 07:11:27;;;;;;;10.67;2.97;;;;;;;;;;5096067;28;20202;-62
2022/10/21 07:13:54;;;;;;;5.23;2.70;;;;;;;;;;5093380;28;20285;-62
2022/10/21 07:16:23;;;;;;;4.67;3.03;;;;;;;;;;5092636;28;20252;-62
2022/10/21 07:18:51;;;;;;;7.23;3.13;;;;;;;;;;5084398;28;20233;-62
2022/10/21 07:21:20;;;;;;;8.07;3.33;;;;;;;;;;5092990;28;20233;-63
2022/10/21 07:23:50;;;;;;;8.80;3.30;;;;;;;;;;5096829;28;20300;-63
2022/10/21 07:26:18;;;;;;;9.53;3.23;;;;;;;;;;5093969;28;20624;-62
2022/10/21 07:28:46;;;;;;;9.00;3.37;;;;;;;;;;5088009;28;20660;-62
2022/10/21 07:31:14;;;;;;;7.83;2.80;;;;;;;;;;5094382;28;20206;-61
2022/10/21 07:33:42;;;;;;;8.50;3.00;;;;;;;;;;5091410;28;20249;-62
2022/10/21 07:36:11;;;;;;;9.40;2.90;;;;;;;;;;5089111;28;20208;-62
2022/10/21 07:38:38;;;;;;;7.40;3.17;;;;;;;;;;5095349;28;20236;-62
2022/10/21 07:41:08;;;;;;;12.33;3.50;;;;;;;;;;5091938;28;20205;-62
2022/10/21 07:43:35;;;;;;;7.73;2.87;;;;;;;;;;5090711;28;20257;-62
2022/10/21 07:46:04;;;;;;;9.93;3.60;;;;;;;;;;5091335;28;20194;-61
2022/10/21 07:48:33;;;;;;;11.17;3.43;;;;;;;;;;5092584;28;20240;-63
2022/10/21 07:51:03;;;;;;;11.47;3.73;;;;;;;;;;5095134;28;20272;-63
2022/10/21 07:53:30;;;;;;;7.93;3.47;;;;;;;;;;5088712;28;20261;-63
2022/10/21 07:56:02;;;;;;;11.10;3.03;;;;;;;;;;5095673;28;20634;-63
2022/10/21 07:58:34;;;;;;;9.30;3.17;;;;;;;;;;5099002;28;20206;-62
2022/10/21 08:01:03;;;;;;;16.20;3.53;;;;;;;;;;5099665;28;20233;-62
2022/10/21 08:03:30;;;;;;;8.43;2.87;;;;;;;;;;5099538;28;20228;-62
2022/10/21 08:05:58;;;;;;;9.43;3.00;;;;;;;;;;5099860;28;20703;-63
2022/10/21 08:08:26;;;;;;;9.03;3.13;;;;;;;;;;5099550;28;20722;-62
2022/10/21 08:10:55;;;;;;;14.73;4.03;;;;;;;;;;5099599;28;20226;-63
2022/10/21 08:13:22;;;;;;;17.67;4.97;;;;;;;;;;5097571;28;20304;-63
2022/10/21 08:15:52;;;;;;;17.47;4.83;;;;;;;;;;5099846;28;20233;-62
2022/10/21 08:18:20;;;;;;;9.63;3.23;;;;;;;;;;5099708;28;20198;-62
2022/10/21 08:20:48;;;;;;;9.07;3.70;;;;;;;;;;5087676;28;20198;-63
2022/10/21 08:23:17;;;;;;;12.40;4.13;;;;;;;;;;5090597;28;20273;-63
2022/10/21 08:25:49;;;;;;;11.80;3.40;;;;;;;;;;5095153;28;20285;-62
2022/10/21 08:28:17;;;;;;;11.03;3.63;;;;;;;;;;5094695;28;20289;-62
2022/10/21 08:30:44;;;;;;;13.43;4.60;;;;;;;;;;5085709;28;20652;-62
2022/10/21 08:33:14;;;;;;;9.70;3.70;;;;;;;;;;5095762;28;20681;-62
2022/10/21 08:35:42;;;;;;;12.93;3.33;;;;;;;;;;5090146;28;20723;-62
2022/10/21 08:38:09;;;;;;;10.43;2.97;;;;;;;;;;5091515;28;20201;-63
2022/10/21 08:40:38;;;;;;;13.17;3.67;;;;;;;;;;5090317;28;20201;-62
2022/10/21 08:43:07;;;;;;;8.47;3.30;;;;;;;;;;5090495;28;20624;-62
2022/10/21 08:45:42;;;;;;;9.90;3.40;;;;;;;;;;5088379;28;20198;-63
2022/10/21 08:48:14;;;;;;;8.43;3.13;;;;;;;;;;5091974;28;20223;-63
2022/10/21 08:50:45;;;;;;;8.60;3.37;;;;;;;;;;5091688;28;20289;-63
2022/10/21 08:53:14;;;;;;;12.00;3.90;;;;;;;;;;5088220;28;20308;-63
2022/10/21 08:55:43;;;;;;;6.60;3.90;;;;;;;;;;5091837;28;20744;-63
2022/10/21 08:58:13;;;;;;;6.93;4.47;;;;;;;;;;5087613;28;20256;-63
2022/10/21 09:00:45;;;;;;;12.33;3.73;;;;;;;;;;5094816;28;20251;-63
2022/10/21 09:03:27;;;;;;;7.07;3.70;;;;;;;;;;5087870;28;20222;-62
2022/10/21 09:06:13;;;;;;;10.13;3.13;;;;;;;;;;5089704;28;20212;-62
2022/10/21 09:08:44;;;;;;;8.33;2.90;;;;;;;;;;5088656;28;20210;-63
2022/10/21 09:11:18;;;;;;;8.53;2.73;;;;;;;;;;5081876;28;20201;-62
2022/10/21 09:13:52;;;;;;;6.83;3.40;;;;;;;;;;5093858;28;20255;-63
2022/10/21 09:16:23;;;;;;;28.33;7.43;;;;;;;;;;5089406;28;20241;-63
2022/10/21 09:18:55;;;;;;;59.17;14.37;;;;;;;;;;5091493;28;20197;-63
2022/10/21 09:21:29;;;;;;;11.77;4.40;;;;;;;;;;5093430;28;20289;-62
2022/10/21 09:24:01;;;;;;;6.90;3.47;;;;;;;;;;5090903;28;20241;-62
2022/10/21 09:26:36;;;;;;;8.70;3.00;;;;;;;;;;5088367;28;20309;-62
2022/10/21 09:29:18;;;;;;;5.93;2.77;;;;;;;;;;5092535;28;20208;-63
2022/10/21 09:31:46;;;;;;;7.27;3.07;;;;;;;;;;5085882;28;20281;-62
2022/10/21 09:34:28;;;;;;;5.60;2.70;;;;;;;;;;5093409;28;20225;-64
2022/10/21 09:36:59;;;;;;;6.73;2.20;;;;;;;;;;5087923;28;20224;-63
2022/10/21 09:39:32;;;;;;;6.70;2.27;;;;;;;;;;5091134;28;20225;-62
2022/10/21 09:41:59;;;;;;;5.60;2.20;;;;;;;;;;5094290;28;20219;-62
2022/10/21 09:44:37;;;;;;;3.33;2.33;;;;;;;;;;5086343;28;20219;-62
2022/10/21 09:47:15;;;;;;;3.67;1.73;;;;;;;;;;5094188;28;20213;-63
2022/10/21 09:49:46;;;;;;;4.83;1.50;;;;;;;;;;5084634;28;20222;-62
2022/10/21 09:52:36;;;;;;;4.47;1.60;;;;;;;;;;5089333;28;20210;-62
2022/10/21 09:55:05;;;;;;;4.73;2.17;;;;;;;;;;5092957;28;20573;-63
2022/10/21 09:57:40;;;;;;;10.00;2.30;;;;;;;;;;5087676;28;20231;-63
2022/10/21 10:00:08;;;;;;;6.90;2.53;;;;;;;;;;5089569;28;20234;-62
2022/10/21 10:02:42;;;;;;;7.80;2.30;;;;;;;;;;5084622;28;20284;-62
2022/10/21 10:05:28;;;;;;;5.60;2.93;;;;;;;;;;5090562;28;20287;-62
2022/10/21 10:07:57;;;;;;;4.00;2.00;;;;;;;;;;5080855;28;20282;-63
2022/10/21 10:10:28;;;;;;;4.10;2.00;;;;;;;;;;5086188;28;20225;-63
2022/10/21 10:12:57;;;;;;;4.47;2.10;;;;;;;;;;5088922;28;20225;-63
2022/10/21 10:15:32;;;;;;;3.93;1.90;;;;;;;;;;5090827;28;20265;-63
2022/10/21 10:18:02;;;;;;;2.83;2.57;;;;;;;;;;5092394;28;20214;-61
2022/10/21 10:20:30;;;;;;;3.37;1.77;;;;;;;;;;5091446;28;20205;-62
2022/10/21 10:23:09;;;;;;;4.43;1.80;;;;;;;;;;5091133;28;20207;-60
2022/10/21 10:25:38;;;;;;;8.87;2.57;;;;;;;;;;5092916;28;20281;-60
2022/10/21 10:28:16;;;;;;;4.03;2.20;;;;;;;;;;5089923;28;20619;-60
2022/10/21 10:30:47;;;;;;;4.57;2.47;;;;;;;;;;5087102;28;20200;-60
2022/10/21 10:33:18;;;;;;;6.17;1.90;;;;;;;;;;5094155;28;20307;-63
2022/10/21 10:35:47;;;;;;;3.77;1.80;;;;;;;;;;5089485;28;20275;-62
2022/10/21 10:38:21;;;;;;;5.37;2.20;;;;;;;;;;5094162;28;20227;-62
2022/10/21 10:40:49;;;;;;;4.67;1.70;;;;;;;;;;5094071;28;20208;-62
2022/10/21 10:43:23;;;;;;;4.13;1.70;;;;;;;;;;5092297;28;20229;-60
2022/10/21 10:45:53;;;;;;;3.87;1.67;;;;;;;;;;5097960;28;20229;-60
2022/10/21 10:48:22;;;;;;;3.90;1.80;;;;;;;;;;5098235;28;20203;-63
2022/10/21 10:50:52;;;;;;;4.47;1.50;;;;;;;;;;5095452;28;20211;-62
2022/10/21 10:53:23;;;;;;;3.23;1.77;;;;;;;;;;5096180;28;20244;-62
2022/10/21 10:55:54;;;;;;;4.33;1.70;;;;;;;;;;5094879;28;20250;-62
2022/10/21 10:58:23;;;;;;;3.67;1.77;;;;;;;;;;5098051;28;20283;-62
2022/10/21 11:00:57;;;;;;;2.27;1.47;;;;;;;;;;5095258;28;20213;-63
2022/10/21 11:03:29;;;;;;;4.13;1.93;;;;;;;;;;5097269;28;20219;-63
2022/10/21 11:06:03;;;;;;;3.23;1.70;;;;;;;;;;5098020;28;20198;-63
2022/10/21 11:08:37;;;;;;;4.43;1.90;;;;;;;;;;5096122;28;20199;-63
2022/10/21 11:11:10;;;;;;;3.30;2.13;;;;;;;;;;5097022;28;20214;-63
2022/10/21 11:13:39;;;;;;;3.67;1.70;;;;;;;;;;5094904;28;20307;-63
2022/10/21 11:16:13;;;;;;;2.00;1.50;;;;;;;;;;5095117;28;20624;-63
2022/10/21 11:18:44;;;;;;;2.17;1.97;;;;;;;;;;5096163;28;20205;-62
2022/10/21 11:21:25;;;;;;;2.37;1.67;;;;;;;;;;5098205;28;20256;-62
2022/10/21 11:24:07;;;;;;;6.23;2.57;;;;;;;;;;5094347;28;20660;-62
2022/10/21 11:26:42;;;;;;;3.37;1.60;;;;;;;;;;5096285;28;20284;-63
2022/10/21 11:29:16;;;;;;;3.83;1.33;;;;;;;;;;5094343;28;20234;-61
2022/10/21 11:31:47;;;;;;;2.60;1.47;;;;;;;;;;5096367;28;20225;-62
2022/10/21 11:34:38;;;;;;;3.43;1.53;;;;;;;;;;5097271;28;20225;-62
2022/10/21 11:37:11;;;;;;;4.37;1.80;;;;;;;;;;5096229;28;20207;-62
2022/10/21 11:39:44;;;;;;;3.20;1.47;;;;;;;;;;5097180;28;20210;-62
2022/10/21 11:42:16;;;;;;;2.63;1.80;;;;;;;;;;5095683;28;20194;-61
2022/10/21 11:44:51;;;;;;;4.87;1.60;;;;;;;;;;5095871;28;20220;-62
2022/10/21 11:47:24;;;;;;;1.80;1.17;;;;;;;;;;5097639;28;20242;-62
2022/10/21 11:49:57;;;;;;;4.47;1.50;;;;;;;;;;5095127;28;20201;-63
2022/10/21 11:52:33;;;;;;;4.50;1.60;;;;;;;;;;5095531;28;20287;-62
2022/10/21 11:55:19;;;;;;;5.00;1.50;;;;;;;;;;5091731;28;20789;-63
2022/10/21 11:57:52;;;;;;;3.87;1.73;;;;;;;;;;5090508;28;20289;-62
2022/10/21 12:00:20;;;;;;;5.17;1.80;;;;;;;;;;5095753;28;20201;-63
2022/10/21 12:02:59;;;;;;;4.93;1.60;;;;;;;;;;5090820;28;20287;-63
2022/10/21 12:05:29;;;;;;;4.83;1.80;;;;;;;;;;5088265;28;20781;-63
2022/10/21 12:08:06;;;;;;;4.73;1.87;;;;;;;;;;5090469;28;20732;-62
2022/10/21 12:10:37;;;;;;;3.60;1.90;;;;;;;;;;5089166;28;20283;-63
2022/10/21 12:13:10;;;;;;;5.13;2.40;;;;;;;;;;5089101;28;20680;-63
2022/10/21 12:15:40;;;;;;;5.10;1.93;;;;;;;;;;5091521;28;20255;-63
2022/10/21 12:18:12;;;;;;;3.10;2.03;;;;;;;;;;5091573;28;20234;-61
2022/10/21 12:20:40;;;;;;;3.87;2.30;;;;;;;;;;5093223;28;20199;-61
2022/10/21 12:23:11;;;;;;;6.07;1.60;;;;;;;;;;5090988;28;20253;-61
2022/10/21 12:25:41;;;;;;;4.73;2.03;;;;;;;;;;5086442;28;20634;-61
2022/10/21 12:28:14;;;;;;;5.43;2.10;;;;;;;;;;5090512;28;20624;-61
2022/10/21 12:30:45;;;;;;;4.83;2.17;;;;;;;;;;5088008;28;20233;-61
2022/10/21 12:33:17;;;;;;;5.00;1.67;;;;;;;;;;5095450;28;20231;-61
2022/10/21 12:35:48;;;;;;;5.10;2.70;;;;;;;;;;5092704;28;20213;-61
2022/10/21 12:38:21;;;;;;;4.33;2.30;;;;;;;;;;5091930;28;20205;-61
2022/10/21 12:40:51;;;;;;;8.00;1.80;;;;;;;;;;5095634;28;20708;-61
2022/10/21 12:43:22;;;;;;;3.50;1.73;;;;;;;;;;5094978;28;20232;-61
2022/10/21 12:46:04;;;;;;;6.17;2.17;;;;;;;;;;5091249;28;20193;-61
2022/10/21 12:48:34;;;;;;;3.97;1.63;;;;;;;;;;5091580;28;20740;-61
2022/10/21 12:51:04;;;;;;;5.43;2.37;;;;;;;;;;5094181;28;20244;-61
2022/10/21 12:53:35;;;;;;;6.50;1.90;;;;;;;;;;5093962;28;20238;-61
2022/10/21 12:56:06;;;;;;;5.17;2.00;;;;;;;;;;5093209;28;20657;-61
2022/10/21 12:58:36;;;;;;;7.83;1.80;;;;;;;;;;5095110;28;20327;-61
2022/10/21 13:01:05;;;;;;;5.20;1.80;;;;;;;;;;5095528;28;20662;-62
2022/10/21 13:03:55;;;;;;;9.40;2.20;;;;;;;;;;5096493;28;20217;-60
2022/10/21 13:06:52;;;;;;;3.77;1.80;;;;;;;;;;5095634;28;20303;-60
2022/10/21 13:09:36;;;;;;;10.10;1.87;;;;;;;;;;5048885;28;20639;-60
2022/10/21 13:12:13;;;;;;;6.70;2.47;;;;;;;;;;5088757;28;20206;-62
2022/10/21 13:14:42;;;;;;;1.73;1.40;;;;;;;;;;5097267;28;20601;-60
2022/10/21 13:17:26;;;;;;;7.00;2.50;;;;;;;;;;5094592;28;20306;-60
2022/10/21 13:19:55;;;;;;;8.67;2.20;;;;;;;;;;5096296;28;20234;-61
2022/10/21 13:22:31;;;;;;;7.43;2.30;;;;;;;;;;5097802;28;20235;-60
2022/10/21 13:25:09;;;;;;;5.87;2.10;;;;;;;;;;5094809;28;20768;-60
2022/10/21 13:27:39;;;;;;;5.20;1.90;;;;;;;;;;5089184;28;20289;-61
2022/10/21 13:30:07;;;;;;;2.77;1.97;;;;;;;;;;5093580;28;20202;-61
2022/10/21 13:32:35;;;;;;;5.00;2.23;;;;;;;;;;5095518;28;20239;-61
2022/10/21 13:35:12;;;;;;;4.87;2.30;;;;;;;;;;5095223;28;20228;-60
2022/10/21 13:37:41;;;;;;;4.90;1.70;;;;;;;;;;5094449;28;20677;-61
2022/10/21 13:40:14;;;;;;;5.30;1.70;;;;;;;;;;5091102;28;20228;-61
2022/10/21 13:42:45;;;;;;;6.77;2.60;;;;;;;;;;5095218;28;20233;-63
2022/10/21 13:45:21;;;;;;;7.67;2.07;;;;;;;;;;5093248;28;20656;-63
2022/10/21 13:47:58;;;;;;;3.53;2.20;;;;;;;;;;5095159;28;20630;-62
2022/10/21 13:50:27;;;;;;;5.10;1.90;;;;;;;;;;5098460;28;20234;-61
2022/10/21 13:52:55;;;;;;;6.83;2.27;;;;;;;;;;5097639;28;20204;-61
2022/10/21 13:55:23;;;;;;;5.37;2.20;;;;;;;;;;5094832;28;20277;-62
2022/10/21 13:57:53;;;;;;;4.43;2.07;;;;;;;;;;5091423;28;20217;-63
2022/10/21 14:00:22;;;;;;;3.33;2.07;;;;;;;;;;5095285;28;20644;-62
2022/10/21 14:02:50;;;;;;;6.07;2.23;;;;;;;;;;5098158;28;20238;-61
2022/10/21 14:05:28;;;;;;;5.90;2.57;;;;;;;;;;5097998;28;20722;-61
2022/10/21 14:07:55;;;;;;;4.43;2.03;;;;;;;;;;5097819;28;20205;-62
2022/10/21 14:10:23;;;;;;;6.13;2.17;;;;;;;;;;5098123;28;20233;-62
2022/10/21 14:12:52;;;;;;;4.90;2.10;;;;;;;;;;5098165;28;20217;-63
2022/10/21 14:15:21;;;;;;;6.60;1.97;;;;;;;;;;5098133;28;20315;-62
2022/10/21 14:17:50;;;;;;;5.43;2.20;;;;;;;;;;5098246;28;20259;-63
2022/10/21 14:20:25;;;;;;;4.07;2.17;;;;;;;;;;5098842;28;20244;-63
2022/10/21 14:22:53;;;;;;;6.17;1.83;;;;;;;;;;5098148;28;20206;-62
2022/10/21 14:25:21;;;;;;;6.33;2.43;;;;;;;;;;5084782;28;20221;-63
2022/10/21 14:27:49;;;;;;;7.23;2.40;;;;;;;;;;5099172;28;20198;-62
2022/10/21 14:30:20;;;;;;;6.43;3.80;;;;;;;;;;5098936;28;20606;-62
2022/10/21 14:32:48;;;;;;;3.67;1.80;;;;;;;;;;5097985;28;20205;-63
2022/10/21 14:35:23;;;;;;;5.83;2.53;;;;;;;;;;5098537;28;20257;-62
2022/10/21 14:37:52;;;;;;;11.83;3.00;;;;;;;;;;5097717;28;20260;-63
2022/10/21 14:40:22;;;;;;;5.13;2.17;;;;;;;;;;5097638;28;20678;-63
2022/10/21 14:42:50;;;;;;;8.13;2.57;;;;;;;;;;5097725;28;20284;-62
2022/10/21 14:45:24;;;;;;;5.27;2.60;;;;;;;;;;5097907;28;20266;-63
2022/10/21 14:47:54;;;;;;;6.57;2.13;;;;;;;;;;5097497;28;20237;-62
2022/10/21 14:50:23;;;;;;;6.13;2.33;;;;;;;;;;5097401;28;20218;-62
2022/10/21 14:52:52;;;;;;;8.70;2.93;;;;;;;;;;5097732;28;20231;-62
2022/10/21 14:55:27;;;;;;;5.93;2.37;;;;;;;;;;5090931;28;20600;-62
2022/10/21 14:58:05;;;;;;;7.73;3.60;;;;;;;;;;5097358;28;20312;-61